createdAt,value
2023-06-11T00:02:22.822Z,14.60
2023-06-11T00:04:52.129Z,14.59
2023-06-11T00:07:22.310Z,14.57
2023-06-11T00:09:50.924Z,14.60
2023-06-11T00:12:19.594Z,14.64
2023-06-11T00:14:48.320Z,14.60
2023-06-11T00:17:16.929Z,14.49
2023-06-11T00:19:45.794Z,14.57
2023-06-11T00:22:16.010Z,14.55
2023-06-11T00:24:46.467Z,14.58
2023-06-11T00:27:14.929Z,14.62
2023-06-11T00:29:43.299Z,14.64
2023-06-11T00:32:12.162Z,14.65
2023-06-11T00:34:40.787Z,14.60
2023-06-11T00:37:09.860Z,14.57
2023-06-11T00:39:38.209Z,14.57
2023-06-11T00:42:11.423Z,14.53
2023-06-11T00:44:40.316Z,14.47
2023-06-11T00:47:11.181Z,14.49
2023-06-11T00:49:39.909Z,14.43
2023-06-11T00:52:13.777Z,14.38
2023-06-11T00:54:43.112Z,14.37
2023-06-11T00:57:13.801Z,14.49
2023-06-11T00:59:42.607Z,14.41
2023-06-11T01:02:19.460Z,14.37
2023-06-11T01:04:49.921Z,14.27
2023-06-11T01:07:24.040Z,14.25
2023-06-11T01:09:54.106Z,14.21
2023-06-11T01:12:24.454Z,14.25
2023-06-11T01:14:53.939Z,14.32
2023-06-11T01:17:31.293Z,14.30
2023-06-11T01:20:12.184Z,14.36
2023-06-11T01:23:10.423Z,14.37
2023-06-11T01:25:51.554Z,14.45
2023-06-11T01:28:28.509Z,14.32
2023-06-11T01:31:02.342Z,14.20
2023-06-11T01:33:36.923Z,14.21
2023-06-11T01:36:09.071Z,14.27
2023-06-11T01:38:42.687Z,14.18
2023-06-11T01:41:17.706Z,14.19
2023-06-11T01:43:48.250Z,14.22
2023-06-11T01:46:16.968Z,14.21
2023-06-11T01:48:46.849Z,14.31
2023-06-11T01:51:15.898Z,14.22
2023-06-11T01:53:45.608Z,14.07
2023-06-11T01:56:14.216Z,14.07
2023-06-11T01:58:46.546Z,14.11
2023-06-11T02:01:16.451Z,14.18
2023-06-11T02:03:45.355Z,14.15
2023-06-11T02:06:14.258Z,14.23
2023-06-11T02:08:44.212Z,14.27
2023-06-11T02:11:12.983Z,14.23
2023-06-11T02:13:41.592Z,14.16
2023-06-11T02:16:10.294Z,14.11
2023-06-11T02:18:40.062Z,14.10
2023-06-11T02:21:08.785Z,14.04
2023-06-11T02:23:37.140Z,14.00
2023-06-11T02:26:05.962Z,13.98
2023-06-11T02:28:34.693Z,13.99
2023-06-11T02:31:03.308Z,14.01
2023-06-11T02:33:33.086Z,14.07
2023-06-11T02:36:02.777Z,14.11
2023-06-11T02:38:31.521Z,14.08
2023-06-11T02:40:59.872Z,14.00
2023-06-11T02:43:28.571Z,13.96
2023-06-11T02:45:57.332Z,13.82
2023-06-11T02:48:26.072Z,13.80
2023-06-11T02:50:54.413Z,13.88
2023-06-11T02:53:24.432Z,14.00
2023-06-11T02:55:53.189Z,14.04
2023-06-11T02:58:21.965Z,14.12
2023-06-11T03:00:50.760Z,14.20
2023-06-11T03:03:19.813Z,14.17
2023-06-11T03:05:50.780Z,14.19
2023-06-11T03:08:20.054Z,14.30
2023-06-11T03:10:50.523Z,14.20
2023-06-11T03:13:19.412Z,14.14
2023-06-11T03:15:51.362Z,14.09
2023-06-11T03:18:20.879Z,14.06
2023-06-11T03:20:49.342Z,14.05
2023-06-11T03:23:17.780Z,13.98
2023-06-11T03:25:47.264Z,13.92
2023-06-11T03:28:17.870Z,13.91
2023-06-11T03:30:46.350Z,13.92
2023-06-11T03:33:15.140Z,13.98
2023-06-11T03:35:43.437Z,13.96
2023-06-11T03:38:21.078Z,14.03
2023-06-11T03:40:49.798Z,14.12
2023-06-11T03:43:20.245Z,14.13
2023-06-11T03:45:50.065Z,14.05
2023-06-11T03:48:18.755Z,14.04
2023-06-11T03:50:48.076Z,14.09
2023-06-11T03:53:17.634Z,14.21
2023-06-11T03:55:46.572Z,14.26
2023-06-11T03:58:15.859Z,14.29
2023-06-11T04:00:46.090Z,14.42
2023-06-11T04:03:14.905Z,14.62
2023-06-11T04:05:43.772Z,14.75
2023-06-11T04:08:12.982Z,14.87
2023-06-11T04:10:43.914Z,14.85
2023-06-11T04:13:12.583Z,14.84
2023-06-11T04:15:41.223Z,14.82
2023-06-11T04:18:14.448Z,14.80
2023-06-11T04:20:43.288Z,14.83
2023-06-11T04:23:12.303Z,14.87
2023-06-11T04:25:41.414Z,14.97
2023-06-11T04:28:11.744Z,15.07
2023-06-11T04:30:41.287Z,15.12
2023-06-11T04:33:10.250Z,15.20
2023-06-11T04:35:40.591Z,15.25
2023-06-11T04:38:09.686Z,15.28
2023-06-11T04:40:39.965Z,15.35
2023-06-11T04:43:09.612Z,15.46
2023-06-11T04:45:39.873Z,15.53
2023-06-11T04:48:10.537Z,15.64
2023-06-11T04:50:41.179Z,15.94
2023-06-11T04:53:13.952Z,16.25
2023-06-11T04:55:42.793Z,16.36
2023-06-11T04:58:11.577Z,16.46
2023-06-11T05:00:41.364Z,16.35
2023-06-11T05:03:13.303Z,16.31
2023-06-11T05:05:43.203Z,16.35
2023-06-11T05:08:12.363Z,16.36
2023-06-11T05:10:41.062Z,16.41
2023-06-11T05:13:10.245Z,16.54
2023-06-11T05:15:39.599Z,16.56
2023-06-11T05:18:09.053Z,16.67
2023-06-11T05:20:37.596Z,16.76
2023-06-11T05:23:07.790Z,16.81
2023-06-11T05:25:47.640Z,16.90
2023-06-11T05:28:19.814Z,17.01
2023-06-11T05:30:51.051Z,17.09
2023-06-11T05:33:21.627Z,17.22
2023-06-11T05:35:52.334Z,17.37
2023-06-11T05:38:22.422Z,17.53
2023-06-11T05:40:51.392Z,17.62
2023-06-11T05:43:20.190Z,17.73
2023-06-11T05:45:50.571Z,17.97
2023-06-11T05:48:21.529Z,18.09
2023-06-11T05:50:51.915Z,18.29
2023-06-11T05:53:21.872Z,18.48
2023-06-11T05:55:53.046Z,18.61
2023-06-11T05:58:24.714Z,18.78
2023-06-11T06:00:55.493Z,19.23
2023-06-11T06:03:24.608Z,19.69
2023-06-11T06:05:53.446Z,20.16
2023-06-11T06:08:24.176Z,20.57
2023-06-11T06:10:52.821Z,20.55
2023-06-11T06:13:21.567Z,20.76
2023-06-11T06:15:50.982Z,20.97
2023-06-11T06:18:22.426Z,20.93
2023-06-11T06:20:51.266Z,21.00
2023-06-11T06:23:19.993Z,21.52
2023-06-11T06:25:57.980Z,21.71
2023-06-11T06:28:26.835Z,22.02
2023-06-11T06:30:56.267Z,22.10
2023-06-11T06:33:25.191Z,22.54
2023-06-11T06:35:53.987Z,22.69
2023-06-11T06:38:22.975Z,22.77
2023-06-11T06:40:52.290Z,23.02
2023-06-11T06:43:22.235Z,23.15
2023-06-11T06:45:57.396Z,23.19
2023-06-11T06:48:29.597Z,23.18
2023-06-11T06:50:59.540Z,23.44
2023-06-11T06:53:28.711Z,23.75
2023-06-11T06:55:59.967Z,24.46
2023-06-11T06:58:30.507Z,24.14
2023-06-11T07:00:59.537Z,24.24
2023-06-11T07:03:28.254Z,24.67
2023-06-11T07:05:58.790Z,25.09
2023-06-11T07:08:27.778Z,25.07
2023-06-11T07:10:57.630Z,24.82
2023-06-11T07:13:41.348Z,25.29
2023-06-11T07:16:11.963Z,25.35
2023-06-11T07:18:44.193Z,25.67
2023-06-11T07:21:13.966Z,25.38
2023-06-11T07:23:43.822Z,25.64
2023-06-11T07:26:15.208Z,26.11
2023-06-11T07:28:47.021Z,26.19
2023-06-11T07:31:15.826Z,26.47
2023-06-11T07:33:46.079Z,26.65
2023-06-11T07:36:16.061Z,26.33
2023-06-11T07:38:45.184Z,27.04
2023-06-11T07:41:15.112Z,26.81
2023-06-11T07:43:43.617Z,26.88
2023-06-11T07:46:17.628Z,27.17
2023-06-11T07:48:46.508Z,27.05
2023-06-11T07:51:19.121Z,26.91
2023-06-11T07:53:51.739Z,27.13
2023-06-11T07:56:20.386Z,27.23
2023-06-11T07:58:49.013Z,26.56
2023-06-11T08:01:18.978Z,26.18
2023-06-11T08:03:47.616Z,25.83
2023-06-11T08:06:16.377Z,26.46
2023-06-11T08:08:44.903Z,25.99
2023-06-11T08:11:13.244Z,26.75
2023-06-11T08:13:42.274Z,26.54
2023-06-11T08:16:10.839Z,26.21
2023-06-11T08:18:40.997Z,27.13
2023-06-11T08:21:09.670Z,27.67
2023-06-11T08:23:38.417Z,27.83
2023-06-11T08:26:06.842Z,28.07
2023-06-11T08:28:36.081Z,28.00
2023-06-11T08:31:04.390Z,28.45
2023-06-11T08:33:34.411Z,28.53
2023-06-11T08:36:04.607Z,28.92
2023-06-11T08:38:32.958Z,29.10
2023-06-11T08:41:01.614Z,28.69
2023-06-11T08:43:30.404Z,28.79
2023-06-11T08:45:58.857Z,28.97
2023-06-11T08:48:31.990Z,29.10
2023-06-11T08:51:05.737Z,28.89
2023-06-11T08:53:34.802Z,28.94
2023-06-11T08:56:03.199Z,26.87
2023-06-11T08:58:35.217Z,26.46
2023-06-11T09:01:10.771Z,27.72
2023-06-11T09:03:39.571Z,27.75
2023-06-11T09:06:10.390Z,28.69
2023-06-11T09:08:39.043Z,29.18
2023-06-11T09:11:07.815Z,30.01
2023-06-11T09:13:36.437Z,30.32
2023-06-11T09:16:04.997Z,29.63
2023-06-11T09:18:33.414Z,29.02
2023-06-11T09:21:02.414Z,28.91
2023-06-11T09:23:34.470Z,29.78
2023-06-11T09:26:04.158Z,29.54
2023-06-11T09:28:34.666Z,28.65
2023-06-11T09:31:06.239Z,29.04
2023-06-11T09:33:35.305Z,29.07
2023-06-11T09:36:03.677Z,28.49
2023-06-11T09:38:36.298Z,29.18
2023-06-11T09:41:08.087Z,29.85
2023-06-11T09:43:36.818Z,30.20
2023-06-11T09:46:07.317Z,30.14
2023-06-11T09:48:37.602Z,30.53
2023-06-11T09:51:08.065Z,30.07
2023-06-11T09:53:39.832Z,29.38
2023-06-11T09:56:11.430Z,29.79
2023-06-11T09:58:42.278Z,30.56
2023-06-11T10:01:11.900Z,30.92
2023-06-11T10:03:41.764Z,31.52
2023-06-11T10:06:18.163Z,31.64
2023-06-11T10:08:52.953Z,31.23
2023-06-11T10:11:25.285Z,31.66
2023-06-11T10:14:00.447Z,32.42
2023-06-11T10:16:30.578Z,32.54
2023-06-11T10:19:08.975Z,32.28
2023-06-11T10:21:42.545Z,31.43
2023-06-11T10:24:23.739Z,30.52
2023-06-11T10:27:10.314Z,31.22
2023-06-11T10:29:40.152Z,32.16
2023-06-11T10:32:19.209Z,31.97
2023-06-11T10:34:50.523Z,31.88
2023-06-11T10:37:32.091Z,32.39
2023-06-11T10:40:01.900Z,32.70
2023-06-11T10:42:36.731Z,32.25
2023-06-11T10:45:10.226Z,32.61
2023-06-11T10:47:45.326Z,33.02
2023-06-11T10:50:16.833Z,32.94
2023-06-11T10:52:52.724Z,31.35
2023-06-11T10:55:24.920Z,32.20
2023-06-11T10:57:54.747Z,32.44
2023-06-11T11:00:24.346Z,32.86
2023-06-11T11:02:52.992Z,31.91
2023-06-11T11:05:22.285Z,32.34
2023-06-11T11:07:50.828Z,32.51
2023-06-11T11:10:20.683Z,32.56
2023-06-11T11:12:50.872Z,32.93
2023-06-11T11:15:19.600Z,33.03
2023-06-11T11:17:49.287Z,33.67
2023-06-11T11:20:21.013Z,33.34
2023-06-11T11:22:55.424Z,32.78
2023-06-11T11:25:29.275Z,31.37
2023-06-11T11:27:59.800Z,31.92
2023-06-11T11:30:29.690Z,32.10
2023-06-11T11:32:59.113Z,32.56
2023-06-11T11:35:29.982Z,32.09
2023-06-11T11:37:58.557Z,32.29
2023-06-11T11:40:27.127Z,32.50
2023-06-11T11:43:00.256Z,32.68
2023-06-11T11:45:34.322Z,31.94
2023-06-11T11:48:05.561Z,31.92
2023-06-11T11:50:35.067Z,32.98
2023-06-11T11:53:06.931Z,33.10
2023-06-11T11:55:44.830Z,33.15
2023-06-11T11:58:22.862Z,32.85
2023-06-11T12:00:53.811Z,32.28
2023-06-11T12:03:24.400Z,32.90
2023-06-11T12:06:01.348Z,33.67
2023-06-11T12:08:32.385Z,31.27
2023-06-11T12:11:02.432Z,30.11
2023-06-11T12:13:32.242Z,28.47
2023-06-11T12:16:04.216Z,29.31
2023-06-11T12:18:33.185Z,30.75
2023-06-11T12:21:01.783Z,31.85
2023-06-11T12:23:30.594Z,32.18
2023-06-11T12:26:01.239Z,31.02
2023-06-11T12:28:31.386Z,28.74
2023-06-11T12:31:00.131Z,29.10
2023-06-11T12:33:28.871Z,29.56
2023-06-11T12:35:57.377Z,30.71
2023-06-11T12:38:26.117Z,31.71
2023-06-11T12:40:54.516Z,32.61
2023-06-11T12:43:23.150Z,31.20
2023-06-11T12:45:52.951Z,31.95
2023-06-11T12:48:21.650Z,32.32
2023-06-11T12:50:50.160Z,31.56
2023-06-11T12:53:18.434Z,32.66
2023-06-11T12:55:47.014Z,32.06
2023-06-11T12:58:15.425Z,29.36
2023-06-11T13:00:43.816Z,28.20
2023-06-11T13:03:13.756Z,29.73
2023-06-11T13:05:42.466Z,29.82
2023-06-11T13:08:11.691Z,30.66
2023-06-11T13:10:41.588Z,31.23
2023-06-11T13:13:10.307Z,31.75
2023-06-11T13:15:39.063Z,31.81
2023-06-11T13:18:08.113Z,30.48
2023-06-11T13:20:38.052Z,30.98
2023-06-11T13:23:06.668Z,31.79
2023-06-11T13:25:35.014Z,32.08
2023-06-11T13:28:03.457Z,31.97
2023-06-11T13:30:31.948Z,32.15
2023-06-11T13:33:01.437Z,32.15
2023-06-11T13:35:30.560Z,30.44
2023-06-11T13:38:00.227Z,27.97
2023-06-11T13:40:28.550Z,26.82
2023-06-11T13:42:56.873Z,27.48
2023-06-11T13:45:25.438Z,28.50
2023-06-11T13:47:54.167Z,28.71
2023-06-11T13:50:22.487Z,29.84
2023-06-11T13:52:51.114Z,28.92
2023-06-11T13:55:21.082Z,27.41
2023-06-11T13:57:49.434Z,27.32
2023-06-11T14:00:18.832Z,27.69
2023-06-11T14:02:47.579Z,28.79
2023-06-11T14:05:16.324Z,28.53
2023-06-11T14:07:44.838Z,28.68
2023-06-11T14:10:13.719Z,29.50
2023-06-11T14:12:43.907Z,29.86
2023-06-11T14:15:13.201Z,30.40
2023-06-11T14:17:43.748Z,30.27
2023-06-11T14:20:15.874Z,30.72
2023-06-11T14:22:45.344Z,31.36
2023-06-11T14:25:13.875Z,31.16
2023-06-11T14:27:44.281Z,31.11
2023-06-11T14:30:14.577Z,29.18
2023-06-11T14:32:43.413Z,27.33
2023-06-11T14:35:12.200Z,28.12
2023-06-11T14:37:40.511Z,27.93
2023-06-11T14:40:10.405Z,28.54
2023-06-11T14:42:39.288Z,29.86
2023-06-11T14:45:10.580Z,29.80
2023-06-11T14:47:39.014Z,30.39
2023-06-11T14:50:08.847Z,30.87
2023-06-11T14:52:37.204Z,30.62
2023-06-11T14:55:06.794Z,29.70
2023-06-11T14:57:35.154Z,28.00
2023-06-11T15:00:05.434Z,26.37
2023-06-11T15:02:36.065Z,25.20
2023-06-11T15:05:05.273Z,25.71
2023-06-11T15:07:35.828Z,26.70
2023-06-11T15:10:06.212Z,27.50
2023-06-11T15:12:35.653Z,27.97
2023-06-11T15:15:04.175Z,29.31
2023-06-11T15:17:37.245Z,29.43
2023-06-11T15:20:07.128Z,29.47
2023-06-11T15:22:38.448Z,29.15
2023-06-11T15:25:07.673Z,27.87
2023-06-11T15:27:35.926Z,26.43
2023-06-11T15:30:05.092Z,25.47
2023-06-11T15:32:34.972Z,25.06
2023-06-11T15:35:04.245Z,24.82
2023-06-11T15:37:32.523Z,24.81
2023-06-11T15:40:01.254Z,25.72
2023-06-11T15:42:29.701Z,26.65
2023-06-11T15:44:58.420Z,27.22
2023-06-11T15:47:26.782Z,27.11
2023-06-11T15:49:56.508Z,27.16
2023-06-11T15:52:25.094Z,27.09
2023-06-11T15:54:53.457Z,27.49
2023-06-11T15:57:21.810Z,27.87
2023-06-11T15:59:51.196Z,28.13
2023-06-11T16:02:19.878Z,28.08
2023-06-11T16:04:49.327Z,28.00
2023-06-11T16:07:19.789Z,28.37
2023-06-11T16:09:48.221Z,27.81
2023-06-11T16:12:17.045Z,28.55
2023-06-11T16:14:46.200Z,28.41
2023-06-11T16:17:16.179Z,28.33
2023-06-11T16:19:44.491Z,27.65
2023-06-11T16:22:13.067Z,26.49
2023-06-11T16:24:42.880Z,25.92
2023-06-11T16:27:11.577Z,25.80
2023-06-11T16:29:39.827Z,25.82
2023-06-11T16:32:12.293Z,25.96
2023-06-11T16:34:40.869Z,26.24
2023-06-11T16:37:09.359Z,26.53
2023-06-11T16:39:37.959Z,26.62
2023-06-11T16:42:09.200Z,26.88
2023-06-11T16:44:37.843Z,26.49
2023-06-11T16:47:07.104Z,26.32
2023-06-11T16:49:36.077Z,26.44
2023-06-11T16:52:05.317Z,26.16
2023-06-11T16:54:33.984Z,26.35
2023-06-11T16:57:02.739Z,26.19
2023-06-11T16:59:32.394Z,25.91
2023-06-11T17:02:01.367Z,25.73
2023-06-11T17:04:29.987Z,25.70
2023-06-11T17:06:58.373Z,25.70
2023-06-11T17:09:26.976Z,25.45
2023-06-11T17:11:55.612Z,25.48
2023-06-11T17:14:23.874Z,25.35
2023-06-11T17:16:53.961Z,25.19
2023-06-11T17:19:22.695Z,25.16
2023-06-11T17:21:51.476Z,25.32
2023-06-11T17:24:20.168Z,25.24
2023-06-11T17:26:48.764Z,25.01
2023-06-11T17:29:17.696Z,24.89
2023-06-11T17:31:46.365Z,24.75
2023-06-11T17:34:16.137Z,24.74
2023-06-11T17:36:44.479Z,24.39
2023-06-11T17:39:13.142Z,23.89
2023-06-11T17:41:42.102Z,23.58
2023-06-11T17:44:10.602Z,23.29
2023-06-11T17:46:39.244Z,23.01
2023-06-11T17:49:07.579Z,22.74
2023-06-11T17:51:37.233Z,22.64
2023-06-11T17:54:05.743Z,22.44
2023-06-11T17:56:34.610Z,22.20
2023-06-11T17:59:03.293Z,21.94
2023-06-11T18:01:32.001Z,21.66
2023-06-11T18:04:00.748Z,21.47
2023-06-11T18:06:29.950Z,21.26
2023-06-11T18:08:59.805Z,20.99
2023-06-11T18:11:28.674Z,20.87
2023-06-11T18:13:57.789Z,20.84
2023-06-11T18:16:26.283Z,20.69
2023-06-11T18:18:55.568Z,20.74
2023-06-11T18:21:24.289Z,20.66
2023-06-11T18:23:53.015Z,20.61
2023-06-11T18:26:23.255Z,20.45
2023-06-11T18:28:51.944Z,20.27
2023-06-11T18:31:21.114Z,20.14
2023-06-11T18:33:49.919Z,20.27
2023-06-11T18:36:18.634Z,20.06
2023-06-11T18:38:47.394Z,19.96
2023-06-11T18:41:15.822Z,19.87
2023-06-11T18:43:45.504Z,19.77
2023-06-11T18:46:14.509Z,19.55
2023-06-11T18:48:43.197Z,19.42
2023-06-11T18:51:11.549Z,19.30
2023-06-11T18:53:40.244Z,19.16
2023-06-11T18:56:09.055Z,18.88
2023-06-11T18:58:37.380Z,18.73
2023-06-11T19:01:07.667Z,18.69
2023-06-11T19:03:39.940Z,18.94
2023-06-11T19:06:10.174Z,18.93
2023-06-11T19:08:38.800Z,18.86
2023-06-11T19:11:07.236Z,18.89
2023-06-11T19:13:40.055Z,19.11
2023-06-11T19:16:10.139Z,19.05
2023-06-11T19:18:38.781Z,18.93
2023-06-11T19:21:07.441Z,18.86
2023-06-11T19:23:36.117Z,18.78
2023-06-11T19:26:04.752Z,18.67
2023-06-11T19:28:33.479Z,18.63
2023-06-11T19:31:01.896Z,18.54
2023-06-11T19:33:31.597Z,18.56
2023-06-11T19:36:00.337Z,18.52
2023-06-11T19:38:28.711Z,18.55
2023-06-11T19:40:57.403Z,18.61
2023-06-11T19:43:26.379Z,18.67
2023-06-11T19:45:55.036Z,18.66
2023-06-11T19:48:23.769Z,18.69
2023-06-11T19:50:54.100Z,18.64
2023-06-11T19:53:22.717Z,18.63
2023-06-11T19:55:51.368Z,18.62
2023-06-11T19:58:20.057Z,18.73
2023-06-11T20:00:48.735Z,18.79
2023-06-11T20:03:17.386Z,18.90
2023-06-11T20:05:46.140Z,18.93
2023-06-11T20:08:16.304Z,19.08
2023-06-11T20:10:45.405Z,18.98
2023-06-11T20:13:14.139Z,19.08
2023-06-11T20:15:43.201Z,19.10
2023-06-11T20:18:11.811Z,19.10
2023-06-11T20:20:40.423Z,19.15
2023-06-11T20:23:09.321Z,19.17
2023-06-11T20:25:39.046Z,19.12
2023-06-11T20:28:07.746Z,18.92
2023-06-11T20:30:36.486Z,18.97
2023-06-11T20:33:05.143Z,18.94
2023-06-11T20:35:33.764Z,18.98
2023-06-11T20:38:03.240Z,18.94
2023-06-11T20:40:32.261Z,18.95
2023-06-11T20:43:01.903Z,18.81
2023-06-11T20:45:30.336Z,18.68
2023-06-11T20:47:59.096Z,18.68
2023-06-11T20:50:28.067Z,18.48
2023-06-11T20:52:56.686Z,18.30
2023-06-11T20:55:25.025Z,18.35
2023-06-11T20:57:53.657Z,18.37
2023-06-11T21:00:23.689Z,18.34
2023-06-11T21:02:52.395Z,18.11
2023-06-11T21:05:22.794Z,18.05
2023-06-11T21:07:51.396Z,17.94
2023-06-11T21:10:20.005Z,17.81
2023-06-11T21:12:50.114Z,17.86
2023-06-11T21:15:19.173Z,17.81
2023-06-11T21:17:49.989Z,17.73
2023-06-11T21:20:18.859Z,17.74
2023-06-11T21:22:47.830Z,17.69
2023-06-11T21:25:16.720Z,17.65
2023-06-11T21:27:45.420Z,17.69
2023-06-11T21:30:14.753Z,17.56
2023-06-11T21:32:43.126Z,17.55
2023-06-11T21:35:12.771Z,17.57
2023-06-11T21:37:41.094Z,17.50
2023-06-11T21:40:11.960Z,17.54
2023-06-11T21:42:41.225Z,17.43
2023-06-11T21:45:10.521Z,17.33
2023-06-11T21:47:39.448Z,17.28
2023-06-11T21:50:09.176Z,17.22
2023-06-11T21:52:39.641Z,17.25
2023-06-11T21:55:09.073Z,17.23
2023-06-11T21:57:37.807Z,17.29
2023-06-11T22:00:13.204Z,17.18
2023-06-11T22:02:43.025Z,17.09
2023-06-11T22:05:13.580Z,17.04
2023-06-11T22:07:45.970Z,16.96
2023-06-11T22:10:15.781Z,16.90
2023-06-11T22:12:44.482Z,16.85
2023-06-11T22:15:15.010Z,16.86
2023-06-11T22:17:47.602Z,16.72
2023-06-11T22:20:16.994Z,16.75
2023-06-11T22:22:47.754Z,16.82
2023-06-11T22:25:16.599Z,16.80
2023-06-11T22:27:46.087Z,16.77
2023-06-11T22:30:15.307Z,16.84
2023-06-11T22:32:44.248Z,16.80
2023-06-11T22:35:13.055Z,16.84
2023-06-11T22:37:41.519Z,16.81
2023-06-11T22:40:12.571Z,16.70
2023-06-11T22:42:41.733Z,16.65
2023-06-11T22:45:10.978Z,16.57
2023-06-11T22:47:39.914Z,16.61
2023-06-11T22:50:10.363Z,16.63
2023-06-11T22:52:40.775Z,16.54
2023-06-11T22:55:12.065Z,16.61
2023-06-11T22:57:40.415Z,16.60
2023-06-11T23:00:12.251Z,16.52
2023-06-11T23:02:40.836Z,16.54
2023-06-11T23:05:10.571Z,16.47
2023-06-11T23:07:42.873Z,16.41
2023-06-11T23:10:13.236Z,16.34
2023-06-11T23:12:42.141Z,16.25
2023-06-11T23:15:12.180Z,16.20
2023-06-11T23:17:42.538Z,16.18
2023-06-11T23:20:12.136Z,16.20
2023-06-11T23:22:41.551Z,16.22
2023-06-11T23:25:14.052Z,16.27
2023-06-11T23:27:45.077Z,16.24
2023-06-11T23:30:14.598Z,16.21
2023-06-11T23:32:44.365Z,16.14
2023-06-11T23:35:13.127Z,16.08
2023-06-11T23:37:42.581Z,15.99
2023-06-11T23:40:15.554Z,15.98
2023-06-11T23:42:44.570Z,15.90
2023-06-11T23:45:13.773Z,15.87
2023-06-11T23:47:44.097Z,15.84
2023-06-11T23:50:13.230Z,15.77
2023-06-11T23:52:41.702Z,15.75
2023-06-11T23:55:10.897Z,15.75
2023-06-11T23:57:41.396Z,15.75
